createdAt,value
2023-05-16T00:00:35.057Z,9.88
2023-05-16T00:03:03.230Z,9.81
2023-05-16T00:05:29.915Z,9.41
2023-05-16T00:07:56.365Z,9.53
2023-05-16T00:10:22.753Z,9.48
2023-05-16T00:12:51.755Z,9.42
2023-05-16T00:15:20.337Z,9.50
2023-05-16T00:17:47.284Z,9.43
2023-05-16T00:20:14.224Z,9.33
2023-05-16T00:22:41.980Z,9.45
2023-05-16T00:25:09.473Z,9.40
2023-05-16T00:27:36.580Z,9.45
2023-05-16T00:30:07.436Z,9.57
2023-05-16T00:32:33.884Z,9.68
2023-05-16T00:35:00.725Z,9.73
2023-05-16T00:37:27.191Z,9.76
2023-05-16T00:39:54.001Z,9.68
2023-05-16T00:42:21.180Z,9.69
2023-05-16T00:44:48.677Z,9.70
2023-05-16T00:47:15.482Z,9.63
2023-05-16T00:49:42.489Z,9.59
2023-05-16T00:52:09.128Z,9.59
2023-05-16T00:54:36.026Z,9.87
2023-05-16T00:57:03.472Z,10.04
2023-05-16T00:59:30.034Z,10.12
2023-05-16T01:01:56.713Z,10.13
2023-05-16T01:04:23.418Z,10.15
2023-05-16T01:06:49.860Z,10.27
2023-05-16T01:09:16.360Z,10.31
2023-05-16T01:11:46.390Z,10.29
2023-05-16T01:14:28.123Z,10.27
2023-05-16T01:17:32.897Z,10.15
2023-05-16T01:20:15.633Z,10.06
2023-05-16T01:23:10.355Z,10.01
2023-05-16T01:25:48.366Z,10.09
2023-05-16T01:28:17.862Z,10.22
2023-05-16T01:30:44.902Z,10.20
2023-05-16T01:33:11.383Z,10.23
2023-05-16T01:35:47.164Z,10.25
2023-05-16T01:38:25.829Z,10.30
2023-05-16T01:41:04.884Z,10.39
2023-05-16T01:43:37.216Z,10.45
2023-05-16T01:46:12.050Z,10.43
2023-05-16T01:48:50.496Z,10.18
2023-05-16T01:51:19.311Z,10.04
2023-05-16T01:53:46.146Z,10.13
2023-05-16T01:56:16.604Z,10.06
2023-05-16T01:58:47.022Z,10.16
2023-05-16T02:01:13.631Z,10.22
2023-05-16T02:03:40.469Z,10.32
2023-05-16T02:06:07.344Z,10.45
2023-05-16T02:08:34.103Z,10.43
2023-05-16T02:11:00.669Z,10.41
2023-05-16T02:13:27.125Z,10.42
2023-05-16T02:15:53.582Z,10.40
2023-05-16T02:18:20.137Z,10.47
2023-05-16T02:20:47.523Z,10.49
2023-05-16T02:23:15.701Z,10.41
2023-05-16T02:25:42.228Z,10.43
2023-05-16T02:28:09.956Z,10.38
2023-05-16T02:30:36.412Z,10.42
2023-05-16T02:33:03.030Z,10.58
2023-05-16T02:35:30.040Z,10.56
2023-05-16T02:37:57.173Z,10.54
2023-05-16T02:40:24.615Z,10.40
2023-05-16T02:42:51.134Z,10.43
2023-05-16T02:45:17.577Z,10.56
2023-05-16T02:47:44.216Z,10.45
2023-05-16T02:50:10.867Z,10.41
2023-05-16T02:52:37.362Z,10.46
2023-05-16T02:55:21.126Z,10.38
2023-05-16T02:57:48.733Z,10.51
2023-05-16T03:00:18.373Z,10.51
2023-05-16T03:02:45.526Z,10.34
2023-05-16T03:05:12.515Z,10.41
2023-05-16T03:07:40.069Z,10.39
2023-05-16T03:10:07.221Z,10.32
2023-05-16T03:12:33.728Z,10.29
2023-05-16T03:15:00.170Z,10.22
2023-05-16T03:17:26.734Z,10.27
2023-05-16T03:19:53.728Z,10.17
2023-05-16T03:22:20.470Z,10.32
2023-05-16T03:24:47.215Z,10.18
2023-05-16T03:27:13.713Z,10.23
2023-05-16T03:29:40.122Z,10.21
2023-05-16T03:32:06.639Z,10.29
2023-05-16T03:34:33.244Z,10.35
2023-05-16T03:36:59.920Z,10.35
2023-05-16T03:39:26.790Z,10.29
2023-05-16T03:41:56.113Z,10.24
2023-05-16T03:44:22.796Z,10.18
2023-05-16T03:46:51.317Z,10.09
2023-05-16T03:49:17.877Z,10.13
2023-05-16T03:51:44.272Z,10.15
2023-05-16T03:54:10.761Z,10.13
2023-05-16T03:56:37.207Z,10.14
2023-05-16T03:59:03.671Z,10.17
2023-05-16T04:01:30.203Z,10.24
2023-05-16T04:03:56.618Z,10.20
2023-05-16T04:06:23.146Z,10.03
2023-05-16T04:08:49.640Z,10.23
2023-05-16T04:11:16.036Z,10.23
2023-05-16T04:13:42.452Z,10.25
2023-05-16T04:16:08.877Z,10.21
2023-05-16T04:18:35.342Z,10.24
2023-05-16T04:21:01.815Z,10.14
2023-05-16T04:23:28.271Z,10.22
2023-05-16T04:25:56.622Z,10.31
2023-05-16T04:28:23.314Z,10.31
2023-05-16T04:30:50.382Z,10.33
2023-05-16T04:33:16.928Z,10.30
2023-05-16T04:35:43.455Z,10.38
2023-05-16T04:38:09.857Z,10.34
2023-05-16T04:40:36.283Z,10.41
2023-05-16T04:43:02.706Z,10.37
2023-05-16T04:45:29.265Z,10.33
2023-05-16T04:47:55.885Z,10.28
2023-05-16T04:50:22.292Z,10.28
2023-05-16T04:52:48.725Z,10.39
2023-05-16T04:55:15.460Z,10.53
2023-05-16T04:57:41.918Z,10.54
2023-05-16T05:00:11.847Z,10.49
2023-05-16T05:02:38.787Z,10.47
2023-05-16T05:05:05.901Z,10.46
2023-05-16T05:07:33.142Z,10.46
2023-05-16T05:09:59.673Z,10.51
2023-05-16T05:12:27.717Z,10.43
2023-05-16T05:14:54.669Z,10.32
2023-05-16T05:17:21.696Z,10.46
2023-05-16T05:19:48.371Z,10.48
2023-05-16T05:22:15.163Z,10.47
2023-05-16T05:24:41.951Z,10.52
2023-05-16T05:27:08.386Z,10.48
2023-05-16T05:29:34.854Z,10.50
2023-05-16T05:32:01.437Z,10.50
2023-05-16T05:34:27.973Z,10.47
2023-05-16T05:36:54.371Z,10.45
2023-05-16T05:39:21.018Z,10.52
2023-05-16T05:41:47.469Z,10.51
2023-05-16T05:44:13.941Z,10.46
2023-05-16T05:46:40.614Z,10.39
2023-05-16T05:49:07.159Z,10.51
2023-05-16T05:51:33.682Z,10.42
2023-05-16T05:54:00.140Z,10.48
2023-05-16T05:56:26.706Z,10.56
2023-05-16T05:58:53.145Z,10.54
2023-05-16T06:01:21.140Z,10.36
2023-05-16T06:03:48.001Z,10.36
2023-05-16T06:06:15.202Z,10.47
2023-05-16T06:08:41.642Z,10.45
2023-05-16T06:11:08.106Z,10.41
2023-05-16T06:13:34.572Z,10.53
2023-05-16T06:16:01.506Z,10.49
2023-05-16T06:18:27.982Z,10.45
2023-05-16T06:20:54.416Z,10.44
2023-05-16T06:23:21.890Z,10.46
2023-05-16T06:25:48.501Z,10.48
2023-05-16T06:28:14.889Z,10.45
2023-05-16T06:30:41.434Z,10.39
2023-05-16T06:33:07.949Z,10.38
2023-05-16T06:35:34.438Z,10.33
2023-05-16T06:38:00.876Z,10.39
2023-05-16T06:40:27.373Z,10.38
2023-05-16T06:42:53.872Z,10.38
2023-05-16T06:45:20.724Z,10.41
2023-05-16T06:47:47.213Z,10.36
2023-05-16T06:50:13.890Z,10.38
2023-05-16T06:52:40.451Z,10.26
2023-05-16T06:55:07.259Z,10.14
2023-05-16T06:57:33.698Z,10.15
2023-05-16T07:00:00.246Z,10.10
2023-05-16T07:02:26.866Z,10.23
2023-05-16T07:04:54.111Z,10.29
2023-05-16T07:07:20.747Z,10.31
2023-05-16T07:09:47.265Z,10.35
2023-05-16T07:12:13.744Z,10.37
2023-05-16T07:14:40.702Z,10.31
2023-05-16T07:17:07.431Z,10.41
2023-05-16T07:19:34.034Z,10.30
2023-05-16T07:22:00.697Z,10.16
2023-05-16T07:24:27.179Z,10.22
2023-05-16T07:26:53.641Z,10.18
2023-05-16T07:29:20.158Z,10.17
2023-05-16T07:31:46.737Z,10.02
2023-05-16T07:34:13.218Z,9.84
2023-05-16T07:36:39.664Z,9.77
2023-05-16T07:39:06.322Z,9.69
2023-05-16T07:41:32.847Z,9.67
2023-05-16T07:43:59.311Z,9.75
2023-05-16T07:46:26.019Z,9.77
2023-05-16T07:48:52.641Z,9.74
2023-05-16T07:51:19.119Z,9.77
2023-05-16T07:53:46.090Z,9.63
2023-05-16T07:56:12.893Z,9.63
2023-05-16T07:58:39.517Z,9.67
2023-05-16T08:01:06.092Z,9.77
2023-05-16T08:03:32.913Z,9.63
2023-05-16T08:05:59.719Z,9.79
2023-05-16T08:08:26.317Z,9.90
2023-05-16T08:10:52.789Z,9.88
2023-05-16T08:13:19.326Z,9.78
2023-05-16T08:15:46.707Z,9.82
2023-05-16T08:18:15.106Z,9.82
2023-05-16T08:20:42.162Z,9.73
2023-05-16T08:23:09.476Z,9.78
2023-05-16T08:25:36.019Z,9.81
2023-05-16T08:28:02.503Z,9.81
2023-05-16T08:30:29.580Z,9.73
2023-05-16T08:32:56.219Z,9.65
2023-05-16T08:35:22.688Z,9.57
2023-05-16T08:37:49.237Z,9.61
2023-05-16T08:40:16.160Z,9.78
2023-05-16T08:42:43.464Z,9.63
2023-05-16T08:45:11.932Z,9.84
2023-05-16T08:47:41.487Z,9.86
2023-05-16T08:50:10.066Z,9.96
2023-05-16T08:52:38.401Z,10.15
2023-05-16T08:55:10.922Z,10.13
2023-05-16T08:57:38.945Z,9.93
2023-05-16T09:00:11.813Z,9.85
2023-05-16T09:02:44.249Z,9.87
2023-05-16T09:05:15.382Z,9.92
2023-05-16T09:07:43.019Z,9.96
2023-05-16T09:10:13.720Z,9.86
2023-05-16T09:12:42.088Z,9.76
2023-05-16T09:15:10.890Z,9.73
2023-05-16T09:17:45.495Z,9.53
2023-05-16T09:20:17.433Z,9.32
2023-05-16T09:23:00.585Z,9.40
2023-05-16T09:25:31.760Z,9.48
2023-05-16T09:28:01.742Z,9.57
2023-05-16T09:30:31.388Z,9.65
2023-05-16T09:32:59.145Z,9.59
2023-05-16T09:35:43.129Z,9.54
2023-05-16T09:38:16.629Z,9.45
2023-05-16T09:40:43.450Z,9.55
2023-05-16T09:43:10.135Z,9.47
2023-05-16T09:45:36.945Z,9.59
2023-05-16T09:48:09.407Z,9.57
2023-05-16T09:50:37.586Z,9.46
2023-05-16T09:53:05.050Z,9.62
2023-05-16T09:55:32.457Z,9.66
2023-05-16T09:57:59.143Z,9.63
2023-05-16T10:00:31.327Z,9.71
2023-05-16T10:02:59.842Z,9.66
2023-05-16T10:05:28.252Z,9.64
2023-05-16T10:07:56.631Z,9.56
2023-05-16T10:10:24.313Z,9.43
2023-05-16T10:12:51.978Z,9.42
2023-05-16T10:15:20.387Z,9.69
2023-05-16T10:17:52.961Z,9.64
2023-05-16T10:20:21.371Z,9.82
2023-05-16T10:22:51.729Z,9.79
2023-05-16T10:25:34.399Z,9.68
2023-05-16T10:28:02.154Z,9.37
2023-05-16T10:30:29.218Z,9.36
2023-05-16T10:32:57.221Z,9.37
2023-05-16T10:35:23.936Z,9.43
2023-05-16T10:37:51.644Z,9.42
2023-05-16T10:40:18.697Z,9.52
2023-05-16T10:42:58.344Z,9.36
2023-05-16T10:45:25.068Z,9.35
2023-05-16T10:47:53.383Z,9.26
2023-05-16T10:50:39.076Z,9.43
2023-05-16T10:53:11.477Z,9.36
2023-05-16T10:55:44.899Z,9.53
2023-05-16T10:58:11.466Z,9.59
2023-05-16T11:00:39.585Z,9.74
2023-05-16T11:03:06.820Z,10.07
2023-05-16T11:05:34.382Z,10.05
2023-05-16T11:08:06.323Z,9.95
2023-05-16T11:10:33.361Z,10.11
2023-05-16T11:13:07.892Z,10.03
2023-05-16T11:15:34.737Z,10.02
2023-05-16T11:18:08.846Z,10.13
2023-05-16T11:20:40.168Z,10.20
2023-05-16T11:23:18.017Z,10.15
2023-05-16T11:25:51.091Z,10.19
2023-05-16T11:28:22.745Z,10.21
2023-05-16T11:30:52.407Z,10.31
2023-05-16T11:33:19.129Z,10.46
2023-05-16T11:36:14.647Z,10.62
2023-05-16T11:38:43.676Z,10.70
2023-05-16T11:41:10.621Z,10.68
2023-05-16T11:43:38.970Z,10.74
2023-05-16T11:46:05.570Z,11.01
2023-05-16T11:48:36.692Z,11.21
2023-05-16T11:51:03.973Z,11.21
2023-05-16T11:53:30.620Z,11.31
2023-05-16T11:56:00.141Z,11.50
2023-05-16T11:58:27.211Z,11.30
2023-05-16T12:00:53.757Z,11.31
2023-05-16T12:03:20.937Z,11.37
2023-05-16T12:05:53.431Z,11.57
2023-05-16T12:08:24.492Z,11.45
2023-05-16T12:10:52.431Z,11.54
2023-05-16T12:13:24.241Z,11.76
2023-05-16T12:15:52.684Z,11.87
2023-05-16T12:18:21.139Z,12.05
2023-05-16T12:20:47.853Z,12.20
2023-05-16T12:23:14.735Z,12.63
2023-05-16T12:25:46.330Z,12.76
2023-05-16T12:28:14.655Z,12.83
2023-05-16T12:30:43.072Z,13.07
2023-05-16T12:33:12.344Z,13.39
2023-05-16T12:35:41.696Z,13.66
2023-05-16T12:38:10.368Z,14.12
2023-05-16T12:40:37.528Z,14.99
2023-05-16T12:43:04.059Z,16.46
2023-05-16T12:45:31.224Z,16.35
2023-05-16T12:48:04.828Z,16.87
2023-05-16T12:50:33.199Z,16.35
2023-05-16T12:53:00.849Z,16.12
2023-05-16T12:55:27.418Z,16.87
2023-05-16T12:57:56.476Z,15.98
2023-05-16T13:00:23.488Z,14.88
2023-05-16T13:02:50.273Z,15.07
2023-05-16T13:05:17.862Z,15.16
2023-05-16T13:07:44.431Z,15.00
2023-05-16T13:10:12.599Z,15.55
2023-05-16T13:12:40.558Z,15.64
2023-05-16T13:15:09.454Z,15.68
2023-05-16T13:17:37.162Z,15.54
2023-05-16T13:20:10.103Z,15.17
2023-05-16T13:22:37.226Z,15.63
2023-05-16T13:25:04.634Z,16.26
2023-05-16T13:27:31.240Z,16.23
2023-05-16T13:29:58.419Z,15.75
2023-05-16T13:32:25.772Z,15.88
2023-05-16T13:34:52.899Z,16.10
2023-05-16T13:37:19.720Z,16.26
2023-05-16T13:39:46.264Z,16.09
2023-05-16T13:42:12.779Z,16.02
2023-05-16T13:44:39.264Z,15.99
2023-05-16T13:47:05.908Z,15.97
2023-05-16T13:49:32.436Z,15.86
2023-05-16T13:51:59.098Z,15.74
2023-05-16T13:54:26.430Z,15.07
2023-05-16T13:56:53.368Z,14.17
2023-05-16T13:59:31.195Z,14.47
2023-05-16T14:02:06.843Z,14.66
2023-05-16T14:04:33.409Z,14.05
2023-05-16T14:06:59.894Z,14.17
2023-05-16T14:09:26.416Z,14.63
2023-05-16T14:11:53.046Z,14.89
2023-05-16T14:14:19.550Z,14.64
2023-05-16T14:16:46.513Z,14.55
2023-05-16T14:19:14.886Z,14.71
2023-05-16T14:21:43.177Z,14.96
2023-05-16T14:24:09.693Z,14.60
2023-05-16T14:26:36.215Z,13.99
2023-05-16T14:29:02.755Z,13.72
2023-05-16T14:31:30.124Z,13.71
2023-05-16T14:33:56.756Z,13.41
2023-05-16T14:36:23.230Z,13.52
2023-05-16T14:38:49.799Z,14.33
2023-05-16T14:41:16.965Z,14.76
2023-05-16T14:43:44.930Z,14.88
2023-05-16T14:46:12.114Z,14.90
2023-05-16T14:48:38.652Z,14.93
2023-05-16T14:51:07.124Z,15.03
2023-05-16T14:53:33.611Z,14.97
2023-05-16T14:56:02.619Z,15.17
2023-05-16T14:58:29.664Z,14.96
2023-05-16T15:00:56.835Z,14.91
2023-05-16T15:03:23.583Z,15.06
2023-05-16T15:05:50.439Z,15.65
2023-05-16T15:08:16.963Z,15.23
2023-05-16T15:10:43.498Z,15.00
2023-05-16T15:13:10.438Z,14.81
2023-05-16T15:15:38.737Z,14.92
2023-05-16T15:18:05.558Z,14.86
2023-05-16T15:20:33.340Z,14.80
2023-05-16T15:23:00.269Z,14.66
2023-05-16T15:25:27.025Z,14.58
2023-05-16T15:27:54.778Z,14.57
2023-05-16T15:30:21.377Z,14.45
2023-05-16T15:32:47.996Z,14.38
2023-05-16T15:35:14.582Z,14.10
2023-05-16T15:37:41.112Z,13.89
2023-05-16T15:40:08.993Z,13.97
2023-05-16T15:42:35.730Z,13.93
2023-05-16T15:45:02.984Z,13.97
2023-05-16T15:47:29.463Z,13.95
2023-05-16T15:49:56.003Z,14.04
2023-05-16T15:52:23.053Z,14.21
2023-05-16T15:54:49.645Z,14.20
2023-05-16T15:57:16.568Z,13.94
2023-05-16T15:59:43.086Z,13.82
2023-05-16T16:02:09.652Z,13.78
2023-05-16T16:04:36.202Z,13.71
2023-05-16T16:07:02.686Z,13.52
2023-05-16T16:09:29.224Z,13.71
2023-05-16T16:11:56.661Z,13.73
2023-05-16T16:14:24.765Z,13.68
2023-05-16T16:16:51.716Z,13.78
2023-05-16T16:19:18.745Z,13.78
2023-05-16T16:21:46.366Z,13.66
2023-05-16T16:24:13.532Z,13.66
2023-05-16T16:26:41.645Z,13.70
2023-05-16T16:29:08.161Z,13.89
2023-05-16T16:31:34.901Z,13.95
2023-05-16T16:34:01.715Z,14.03
2023-05-16T16:36:28.336Z,13.84
2023-05-16T16:38:55.017Z,13.71
2023-05-16T16:41:21.777Z,13.66
2023-05-16T16:43:48.354Z,13.54
2023-05-16T16:46:14.944Z,13.44
2023-05-16T16:48:41.547Z,13.48
2023-05-16T16:51:08.066Z,13.43
2023-05-16T16:53:35.251Z,13.12
2023-05-16T16:56:01.763Z,13.22
2023-05-16T16:58:28.438Z,13.29
2023-05-16T17:00:55.025Z,13.38
2023-05-16T17:03:21.897Z,13.36
2023-05-16T17:05:48.470Z,13.36
2023-05-16T17:08:15.074Z,13.22
2023-05-16T17:10:41.708Z,13.18
2023-05-16T17:13:10.420Z,13.17
2023-05-16T17:15:37.832Z,13.09
2023-05-16T17:18:08.545Z,12.85
2023-05-16T17:21:16.384Z,12.83
2023-05-16T17:23:50.399Z,12.85
2023-05-16T17:26:17.750Z,12.82
2023-05-16T17:28:46.045Z,12.77
2023-05-16T17:31:12.686Z,12.67
2023-05-16T17:33:39.225Z,12.58
2023-05-16T17:36:07.280Z,12.48
2023-05-16T17:38:34.664Z,12.55
2023-05-16T17:41:01.698Z,12.37
2023-05-16T17:43:30.079Z,12.44
2023-05-16T17:45:57.001Z,12.31
2023-05-16T17:48:23.741Z,12.29
2023-05-16T17:50:51.271Z,12.35
2023-05-16T17:53:17.752Z,12.57
2023-05-16T17:55:44.266Z,12.54
2023-05-16T17:58:10.788Z,12.48
2023-05-16T18:00:38.404Z,12.45
2023-05-16T18:03:06.294Z,12.43
2023-05-16T18:05:32.960Z,12.44
2023-05-16T18:07:59.623Z,12.40
2023-05-16T18:10:29.621Z,12.44
2023-05-16T18:13:03.638Z,12.39
2023-05-16T18:15:30.223Z,12.33
2023-05-16T18:17:56.866Z,12.22
2023-05-16T18:20:23.481Z,12.17
2023-05-16T18:22:51.930Z,12.15
2023-05-16T18:25:18.778Z,11.96
2023-05-16T18:27:45.399Z,11.88
2023-05-16T18:30:13.287Z,11.88
2023-05-16T18:32:40.111Z,11.81
2023-05-16T18:35:06.998Z,11.73
2023-05-16T18:37:33.756Z,11.68
2023-05-16T18:40:00.445Z,11.57
2023-05-16T18:42:27.318Z,11.39
2023-05-16T18:44:53.895Z,11.30
2023-05-16T18:47:20.912Z,11.29
2023-05-16T18:49:47.543Z,11.22
2023-05-16T18:52:14.189Z,11.07
2023-05-16T18:54:40.806Z,11.06
2023-05-16T18:57:07.769Z,11.05
2023-05-16T18:59:34.771Z,11.00
2023-05-16T19:02:01.702Z,10.91
2023-05-16T19:04:28.578Z,10.93
2023-05-16T19:06:56.325Z,10.77
2023-05-16T19:09:23.265Z,10.72
2023-05-16T19:11:49.906Z,10.56
2023-05-16T19:14:16.763Z,10.44
2023-05-16T19:16:43.277Z,10.40
2023-05-16T19:19:09.849Z,10.40
2023-05-16T19:21:36.631Z,10.39
2023-05-16T19:24:03.632Z,10.31
2023-05-16T19:26:30.953Z,10.22
2023-05-16T19:28:57.486Z,10.13
2023-05-16T19:31:23.979Z,9.97
2023-05-16T19:33:50.599Z,9.82
2023-05-16T19:36:17.827Z,9.64
2023-05-16T19:38:44.332Z,9.58
2023-05-16T19:41:10.955Z,9.50
2023-05-16T19:43:37.447Z,9.46
2023-05-16T19:46:03.955Z,9.40
2023-05-16T19:48:30.853Z,9.42
2023-05-16T19:50:57.574Z,9.39
2023-05-16T19:53:24.139Z,9.31
2023-05-16T19:55:50.702Z,9.25
2023-05-16T19:58:17.180Z,9.18
2023-05-16T20:00:44.716Z,9.11
2023-05-16T20:03:11.386Z,9.09
2023-05-16T20:05:38.004Z,9.09
2023-05-16T20:08:04.513Z,9.12
2023-05-16T20:10:31.132Z,9.00
2023-05-16T20:12:57.621Z,9.00
2023-05-16T20:15:24.158Z,9.03
2023-05-16T20:17:50.761Z,8.95
2023-05-16T20:20:17.378Z,8.92
2023-05-16T20:22:43.973Z,8.88
2023-05-16T20:25:11.626Z,8.87
2023-05-16T20:27:38.733Z,8.87
2023-05-16T20:30:07.300Z,8.82
2023-05-16T20:32:34.195Z,8.83
2023-05-16T20:35:01.250Z,8.80
2023-05-16T20:37:27.784Z,8.78
2023-05-16T20:39:54.459Z,8.76
2023-05-16T20:42:21.815Z,8.74
2023-05-16T20:44:48.397Z,8.77
2023-05-16T20:47:16.756Z,8.76
2023-05-16T20:49:43.317Z,8.77
2023-05-16T20:52:09.992Z,8.74
2023-05-16T20:54:36.534Z,8.73
2023-05-16T20:57:03.166Z,8.72
2023-05-16T20:59:29.770Z,8.71
2023-05-16T21:01:57.429Z,8.69
2023-05-16T21:04:24.766Z,8.68
2023-05-16T21:06:51.694Z,8.68
2023-05-16T21:09:18.170Z,8.71
2023-05-16T21:11:44.726Z,8.72
2023-05-16T21:14:11.396Z,8.67
2023-05-16T21:16:37.929Z,8.61
2023-05-16T21:19:04.723Z,8.60
2023-05-16T21:21:31.657Z,8.56
2023-05-16T21:23:58.323Z,8.57
2023-05-16T21:26:24.919Z,8.55
2023-05-16T21:28:55.526Z,8.54
2023-05-16T21:31:23.094Z,8.54
2023-05-16T21:33:52.071Z,8.53
2023-05-16T21:36:19.794Z,8.50
2023-05-16T21:38:46.309Z,8.53
2023-05-16T21:41:13.209Z,8.46
2023-05-16T21:43:40.183Z,8.43
2023-05-16T21:46:07.221Z,8.43
2023-05-16T21:48:33.935Z,8.41
2023-05-16T21:51:00.629Z,8.38
2023-05-16T21:53:27.192Z,8.35
2023-05-16T21:55:53.769Z,8.33
2023-05-16T21:58:20.250Z,8.33
2023-05-16T22:00:46.731Z,8.28
2023-05-16T22:03:13.431Z,8.29
2023-05-16T22:05:40.115Z,8.24
2023-05-16T22:08:07.855Z,8.29
2023-05-16T22:10:34.517Z,8.32
2023-05-16T22:13:01.140Z,8.23
2023-05-16T22:15:28.017Z,8.23
2023-05-16T22:17:57.417Z,8.16
2023-05-16T22:20:23.972Z,8.10
2023-05-16T22:22:52.123Z,8.08
2023-05-16T22:25:18.783Z,8.04
2023-05-16T22:27:45.383Z,7.77
2023-05-16T22:30:12.738Z,7.53
2023-05-16T22:32:39.371Z,7.29
2023-05-16T22:35:06.501Z,7.23
2023-05-16T22:37:33.022Z,7.18
2023-05-16T22:39:59.493Z,7.14
2023-05-16T22:42:26.045Z,7.26
2023-05-16T22:44:52.612Z,7.17
2023-05-16T22:47:19.474Z,7.11
2023-05-16T22:49:45.996Z,7.02
2023-05-16T22:52:12.503Z,6.99
2023-05-16T22:54:41.484Z,6.89
2023-05-16T22:57:08.125Z,6.82
2023-05-16T22:59:34.694Z,6.61
2023-05-16T23:02:01.289Z,6.48
2023-05-16T23:04:27.845Z,6.58
2023-05-16T23:06:54.392Z,6.40
2023-05-16T23:09:20.888Z,6.51
2023-05-16T23:11:47.443Z,6.34
2023-05-16T23:14:13.993Z,6.45
2023-05-16T23:16:40.584Z,6.34
2023-05-16T23:19:09.331Z,6.37
2023-05-16T23:21:36.503Z,6.20
2023-05-16T23:24:03.070Z,6.07
2023-05-16T23:26:29.638Z,6.11
2023-05-16T23:28:56.154Z,5.92
2023-05-16T23:31:22.672Z,5.78
2023-05-16T23:33:49.338Z,5.74
2023-05-16T23:36:15.908Z,5.71
2023-05-16T23:38:42.389Z,5.85
2023-05-16T23:41:08.848Z,5.89
2023-05-16T23:43:35.352Z,5.77
2023-05-16T23:46:01.846Z,5.91
2023-05-16T23:48:28.446Z,6.07
2023-05-16T23:50:55.085Z,6.00
2023-05-16T23:53:21.702Z,6.09
2023-05-16T23:55:48.193Z,6.22
2023-05-16T23:58:14.791Z,6.13
